sensor_id;sensor_type;location;lat;lon;timestamp;P1;durP1;ratioP1;P2;durP2;ratioP2
2438;SDS011;14509;47.992;7.848;2022-12-07T00:01:40;15.73;;;11.05;;
2438;SDS011;14509;47.992;7.848;2022-12-07T00:03:44;12.05;;;10.75;;
2438;SDS011;14509;47.992;7.848;2022-12-07T00:05:47;16.27;;;11.55;;
2438;SDS011;14509;47.992;7.848;2022-12-07T00:07:49;17.73;;;10.60;;
2438;SDS011;14509;47.992;7.848;2022-12-07T00:09:52;17.85;;;11.00;;
2438;SDS011;14509;47.992;7.848;2022-12-07T00:11:54;17.02;;;10.27;;
2438;SDS011;14509;47.992;7.848;2022-12-07T00:13:57;16.48;;;9.60;;
2438;SDS011;14509;47.992;7.848;2022-12-07T00:16:01;14.27;;;9.75;;
2438;SDS011;14509;47.992;7.848;2022-12-07T00:18:04;19.63;;;10.25;;
2438;SDS011;14509;47.992;7.848;2022-12-07T00:20:06;12.95;;;9.43;;
2438;SDS011;14509;47.992;7.848;2022-12-07T00:22:09;15.20;;;9.80;;
2438;SDS011;14509;47.992;7.848;2022-12-07T00:24:11;14.35;;;10.10;;
2438;SDS011;14509;47.992;7.848;2022-12-07T00:26:16;16.35;;;10.80;;
2438;SDS011;14509;47.992;7.848;2022-12-07T00:28:18;16.02;;;10.48;;
2438;SDS011;14509;47.992;7.848;2022-12-07T00:30:20;15.77;;;10.05;;
2438;SDS011;14509;47.992;7.848;2022-12-07T00:32:22;15.27;;;10.15;;
2438;SDS011;14509;47.992;7.848;2022-12-07T00:34:24;14.13;;;8.95;;
2438;SDS011;14509;47.992;7.848;2022-12-07T00:36:27;13.63;;;9.23;;
2438;SDS011;14509;47.992;7.848;2022-12-07T00:38:32;12.45;;;9.13;;
2438;SDS011;14509;47.992;7.848;2022-12-07T00:40:34;15.05;;;10.45;;
2438;SDS011;14509;47.992;7.848;2022-12-07T00:42:38;14.43;;;9.10;;
2438;SDS011;14509;47.992;7.848;2022-12-07T00:44:39;13.57;;;8.57;;
2438;SDS011;14509;47.992;7.848;2022-12-07T00:46:41;18.60;;;9.98;;
2438;SDS011;14509;47.992;7.848;2022-12-07T00:48:45;15.13;;;10.02;;
2438;SDS011;14509;47.992;7.848;2022-12-07T00:50:48;12.25;;;8.32;;
2438;SDS011;14509;47.992;7.848;2022-12-07T00:52:50;15.77;;;9.65;;
2438;SDS011;14509;47.992;7.848;2022-12-07T00:54:52;15.25;;;8.63;;
2438;SDS011;14509;47.992;7.848;2022-12-07T00:56:54;15.73;;;9.52;;
2438;SDS011;14509;47.992;7.848;2022-12-07T00:58:58;14.57;;;9.93;;
2438;SDS011;14509;47.992;7.848;2022-12-07T01:01:00;15.10;;;10.02;;
2438;SDS011;14509;47.992;7.848;2022-12-07T01:03:03;13.07;;;9.05;;
2438;SDS011;14509;47.992;7.848;2022-12-07T01:05:06;11.90;;;9.52;;
2438;SDS011;14509;47.992;7.848;2022-12-07T01:07:09;14.55;;;9.98;;
2438;SDS011;14509;47.992;7.848;2022-12-07T01:09:11;10.05;;;7.90;;
2438;SDS011;14509;47.992;7.848;2022-12-07T01:11:14;16.80;;;9.43;;
2438;SDS011;14509;47.992;7.848;2022-12-07T01:13:16;18.27;;;10.38;;
2438;SDS011;14509;47.992;7.848;2022-12-07T01:15:20;12.90;;;9.30;;
2438;SDS011;14509;47.992;7.848;2022-12-07T01:17:22;15.65;;;9.60;;
2438;SDS011;14509;47.992;7.848;2022-12-07T01:19:24;16.15;;;10.00;;
2438;SDS011;14509;47.992;7.848;2022-12-07T01:21:26;14.68;;;9.98;;
2438;SDS011;14509;47.992;7.848;2022-12-07T01:23:30;15.60;;;8.70;;
2438;SDS011;14509;47.992;7.848;2022-12-07T01:25:33;15.23;;;9.05;;
2438;SDS011;14509;47.992;7.848;2022-12-07T01:27:35;19.85;;;10.82;;
2438;SDS011;14509;47.992;7.848;2022-12-07T01:29:37;16.10;;;9.82;;
2438;SDS011;14509;47.992;7.848;2022-12-07T01:31:40;15.57;;;9.45;;
2438;SDS011;14509;47.992;7.848;2022-12-07T01:33:43;18.85;;;10.13;;
2438;SDS011;14509;47.992;7.848;2022-12-07T01:35:46;14.65;;;8.90;;
2438;SDS011;14509;47.992;7.848;2022-12-07T01:37:48;16.85;;;10.82;;
2438;SDS011;14509;47.992;7.848;2022-12-07T01:39:50;15.45;;;9.35;;
2438;SDS011;14509;47.992;7.848;2022-12-07T01:41:53;13.52;;;10.25;;
2438;SDS011;14509;47.992;7.848;2022-12-07T01:44:11;14.18;;;10.73;;
2438;SDS011;14509;47.992;7.848;2022-12-07T01:46:15;12.77;;;9.68;;
2438;SDS011;14509;47.992;7.848;2022-12-07T01:48:19;18.05;;;11.68;;
2438;SDS011;14509;47.992;7.848;2022-12-07T01:50:24;17.90;;;11.35;;
2438;SDS011;14509;47.992;7.848;2022-12-07T01:52:32;22.17;;;11.55;;
2438;SDS011;14509;47.992;7.848;2022-12-07T01:54:36;16.48;;;11.18;;
2438;SDS011;14509;47.992;7.848;2022-12-07T01:56:38;17.73;;;10.68;;
2438;SDS011;14509;47.992;7.848;2022-12-07T01:58:43;17.30;;;11.98;;
2438;SDS011;14509;47.992;7.848;2022-12-07T02:00:46;23.30;;;13.63;;
2438;SDS011;14509;47.992;7.848;2022-12-07T02:02:49;23.33;;;12.98;;
2438;SDS011;14509;47.992;7.848;2022-12-07T02:04:57;19.63;;;13.35;;
2438;SDS011;14509;47.992;7.848;2022-12-07T02:07:01;20.33;;;13.75;;
2438;SDS011;14509;47.992;7.848;2022-12-07T02:09:04;23.98;;;13.75;;
2438;SDS011;14509;47.992;7.848;2022-12-07T02:11:06;22.40;;;13.55;;
2438;SDS011;14509;47.992;7.848;2022-12-07T02:13:09;25.65;;;15.05;;
2438;SDS011;14509;47.992;7.848;2022-12-07T02:15:14;29.08;;;15.75;;
2438;SDS011;14509;47.992;7.848;2022-12-07T02:17:18;24.63;;;15.65;;
2438;SDS011;14509;47.992;7.848;2022-12-07T02:19:35;24.60;;;15.00;;
2438;SDS011;14509;47.992;7.848;2022-12-07T02:22:00;20.92;;;13.63;;
2438;SDS011;14509;47.992;7.848;2022-12-07T02:24:22;29.35;;;13.38;;
2438;SDS011;14509;47.992;7.848;2022-12-07T02:26:48;24.50;;;14.35;;
2438;SDS011;14509;47.992;7.848;2022-12-07T02:29:11;20.02;;;14.75;;
2438;SDS011;14509;47.992;7.848;2022-12-07T02:31:23;23.27;;;12.93;;
2438;SDS011;14509;47.992;7.848;2022-12-07T02:33:29;18.92;;;13.95;;
2438;SDS011;14509;47.992;7.848;2022-12-07T02:35:35;22.73;;;13.18;;
2438;SDS011;14509;47.992;7.848;2022-12-07T02:37:47;22.38;;;13.55;;
2438;SDS011;14509;47.992;7.848;2022-12-07T02:39:55;20.13;;;12.65;;
2438;SDS011;14509;47.992;7.848;2022-12-07T02:42:02;20.50;;;12.07;;
2438;SDS011;14509;47.992;7.848;2022-12-07T02:44:11;12.48;;;9.73;;
2438;SDS011;14509;47.992;7.848;2022-12-07T02:46:17;16.33;;;10.70;;
2438;SDS011;14509;47.992;7.848;2022-12-07T02:48:24;16.10;;;9.52;;
2438;SDS011;14509;47.992;7.848;2022-12-07T02:50:28;17.27;;;10.25;;
2438;SDS011;14509;47.992;7.848;2022-12-07T02:52:30;13.85;;;8.75;;
2438;SDS011;14509;47.992;7.848;2022-12-07T02:54:32;15.48;;;10.38;;
2438;SDS011;14509;47.992;7.848;2022-12-07T02:56:39;17.67;;;11.02;;
2438;SDS011;14509;47.992;7.848;2022-12-07T02:58:50;15.90;;;10.50;;
2438;SDS011;14509;47.992;7.848;2022-12-07T03:01:02;16.90;;;9.95;;
2438;SDS011;14509;47.992;7.848;2022-12-07T03:03:14;11.43;;;7.72;;
2438;SDS011;14509;47.992;7.848;2022-12-07T03:05:27;6.63;;;5.22;;
2438;SDS011;14509;47.992;7.848;2022-12-07T03:07:47;19.77;;;8.95;;
2438;SDS011;14509;47.992;7.848;2022-12-07T03:09:58;12.93;;;8.38;;
2438;SDS011;14509;47.992;7.848;2022-12-07T03:12:06;17.05;;;9.27;;
2438;SDS011;14509;47.992;7.848;2022-12-07T03:14:13;12.25;;;8.23;;
2438;SDS011;14509;47.992;7.848;2022-12-07T03:16:21;16.00;;;10.30;;
2438;SDS011;14509;47.992;7.848;2022-12-07T03:18:29;13.98;;;8.02;;
2438;SDS011;14509;47.992;7.848;2022-12-07T03:20:35;11.85;;;8.15;;
2438;SDS011;14509;47.992;7.848;2022-12-07T03:22:38;13.07;;;10.18;;
2438;SDS011;14509;47.992;7.848;2022-12-07T03:24:43;14.63;;;8.90;;
2438;SDS011;14509;47.992;7.848;2022-12-07T03:26:49;15.25;;;9.52;;
2438;SDS011;14509;47.992;7.848;2022-12-07T03:28:55;15.73;;;9.02;;
2438;SDS011;14509;47.992;7.848;2022-12-07T03:31:02;19.20;;;9.60;;
2438;SDS011;14509;47.992;7.848;2022-12-07T03:33:10;13.75;;;8.07;;
2438;SDS011;14509;47.992;7.848;2022-12-07T03:35:17;16.83;;;9.30;;
2438;SDS011;14509;47.992;7.848;2022-12-07T03:37:24;14.80;;;9.50;;
2438;SDS011;14509;47.992;7.848;2022-12-07T03:39:33;12.93;;;8.35;;
2438;SDS011;14509;47.992;7.848;2022-12-07T03:41:39;15.93;;;7.93;;
2438;SDS011;14509;47.992;7.848;2022-12-07T03:43:42;12.65;;;8.50;;
2438;SDS011;14509;47.992;7.848;2022-12-07T03:45:44;12.68;;;8.43;;
2438;SDS011;14509;47.992;7.848;2022-12-07T03:47:54;9.90;;;6.55;;
2438;SDS011;14509;47.992;7.848;2022-12-07T03:50:09;12.25;;;8.20;;
2438;SDS011;14509;47.992;7.848;2022-12-07T03:52:17;14.27;;;9.25;;
2438;SDS011;14509;47.992;7.848;2022-12-07T03:54:24;10.18;;;7.75;;
2438;SDS011;14509;47.992;7.848;2022-12-07T03:56:31;14.43;;;8.63;;
2438;SDS011;14509;47.992;7.848;2022-12-07T03:58:34;12.68;;;7.45;;
2438;SDS011;14509;47.992;7.848;2022-12-07T04:00:38;15.07;;;9.70;;
2438;SDS011;14509;47.992;7.848;2022-12-07T04:02:41;14.43;;;8.95;;
2438;SDS011;14509;47.992;7.848;2022-12-07T04:04:44;9.45;;;7.07;;
2438;SDS011;14509;47.992;7.848;2022-12-07T04:06:48;11.30;;;6.88;;
2438;SDS011;14509;47.992;7.848;2022-12-07T04:08:50;9.73;;;5.70;;
2438;SDS011;14509;47.992;7.848;2022-12-07T04:10:52;8.70;;;6.10;;
2438;SDS011;14509;47.992;7.848;2022-12-07T04:12:53;11.35;;;6.68;;
2438;SDS011;14509;47.992;7.848;2022-12-07T04:14:56;10.20;;;7.32;;
2438;SDS011;14509;47.992;7.848;2022-12-07T04:16:58;12.00;;;7.60;;
2438;SDS011;14509;47.992;7.848;2022-12-07T04:19:00;8.20;;;6.40;;
2438;SDS011;14509;47.992;7.848;2022-12-07T04:21:02;12.10;;;7.32;;
2438;SDS011;14509;47.992;7.848;2022-12-07T04:23:05;10.43;;;7.53;;
2438;SDS011;14509;47.992;7.848;2022-12-07T04:25:08;14.40;;;8.30;;
2438;SDS011;14509;47.992;7.848;2022-12-07T04:27:10;9.68;;;6.75;;
2438;SDS011;14509;47.992;7.848;2022-12-07T04:29:12;10.68;;;7.57;;
2438;SDS011;14509;47.992;7.848;2022-12-07T04:31:15;11.07;;;6.80;;
2438;SDS011;14509;47.992;7.848;2022-12-07T04:33:17;11.45;;;7.07;;
2438;SDS011;14509;47.992;7.848;2022-12-07T04:35:19;9.43;;;6.63;;
2438;SDS011;14509;47.992;7.848;2022-12-07T04:37:21;7.20;;;5.93;;
2438;SDS011;14509;47.992;7.848;2022-12-07T04:39:26;9.15;;;6.38;;
2438;SDS011;14509;47.992;7.848;2022-12-07T04:41:29;8.30;;;5.55;;
2438;SDS011;14509;47.992;7.848;2022-12-07T04:43:31;8.80;;;6.22;;
2438;SDS011;14509;47.992;7.848;2022-12-07T04:45:33;8.15;;;5.63;;
2438;SDS011;14509;47.992;7.848;2022-12-07T04:47:35;7.38;;;5.70;;
2438;SDS011;14509;47.992;7.848;2022-12-07T04:49:37;4.90;;;4.25;;
2438;SDS011;14509;47.992;7.848;2022-12-07T04:51:39;7.63;;;5.90;;
2438;SDS011;14509;47.992;7.848;2022-12-07T04:53:41;5.40;;;4.90;;
2438;SDS011;14509;47.992;7.848;2022-12-07T04:55:45;6.22;;;5.63;;
2438;SDS011;14509;47.992;7.848;2022-12-07T04:57:47;9.60;;;4.75;;
2438;SDS011;14509;47.992;7.848;2022-12-07T04:59:49;7.13;;;5.15;;
2438;SDS011;14509;47.992;7.848;2022-12-07T05:01:51;6.20;;;4.40;;
2438;SDS011;14509;47.992;7.848;2022-12-07T05:03:53;4.88;;;3.42;;
2438;SDS011;14509;47.992;7.848;2022-12-07T05:05:55;7.35;;;5.10;;
2438;SDS011;14509;47.992;7.848;2022-12-07T05:07:57;6.32;;;4.63;;
2438;SDS011;14509;47.992;7.848;2022-12-07T05:09:59;5.88;;;4.15;;
2438;SDS011;14509;47.992;7.848;2022-12-07T05:12:03;6.43;;;4.45;;
2438;SDS011;14509;47.992;7.848;2022-12-07T05:14:06;6.20;;;4.32;;
2438;SDS011;14509;47.992;7.848;2022-12-07T05:16:10;6.60;;;5.88;;
2438;SDS011;14509;47.992;7.848;2022-12-07T05:18:12;7.10;;;5.15;;
2438;SDS011;14509;47.992;7.848;2022-12-07T05:20:14;8.55;;;5.63;;
2438;SDS011;14509;47.992;7.848;2022-12-07T05:22:16;10.25;;;6.47;;
2438;SDS011;14509;47.992;7.848;2022-12-07T05:24:18;7.18;;;5.60;;
2438;SDS011;14509;47.992;7.848;2022-12-07T05:26:20;9.93;;;6.20;;
2438;SDS011;14509;47.992;7.848;2022-12-07T05:28:24;8.60;;;5.00;;
2438;SDS011;14509;47.992;7.848;2022-12-07T05:30:26;7.55;;;4.90;;
2438;SDS011;14509;47.992;7.848;2022-12-07T05:32:28;7.32;;;6.03;;
2438;SDS011;14509;47.992;7.848;2022-12-07T05:34:30;7.68;;;4.70;;
2438;SDS011;14509;47.992;7.848;2022-12-07T05:36:32;8.38;;;5.28;;
2438;SDS011;14509;47.992;7.848;2022-12-07T05:38:34;10.68;;;5.85;;
2438;SDS011;14509;47.992;7.848;2022-12-07T05:40:36;9.20;;;6.20;;
2438;SDS011;14509;47.992;7.848;2022-12-07T05:42:39;7.88;;;5.82;;
2438;SDS011;14509;47.992;7.848;2022-12-07T05:44:42;6.70;;;4.70;;
2438;SDS011;14509;47.992;7.848;2022-12-07T05:46:45;8.60;;;4.82;;
2438;SDS011;14509;47.992;7.848;2022-12-07T05:48:47;8.20;;;5.18;;
2438;SDS011;14509;47.992;7.848;2022-12-07T05:50:49;8.30;;;4.82;;
2438;SDS011;14509;47.992;7.848;2022-12-07T05:52:52;9.48;;;5.43;;
2438;SDS011;14509;47.992;7.848;2022-12-07T05:54:55;8.35;;;4.70;;
2438;SDS011;14509;47.992;7.848;2022-12-07T05:56:57;8.48;;;5.63;;
2438;SDS011;14509;47.992;7.848;2022-12-07T05:58:59;12.32;;;5.03;;
2438;SDS011;14509;47.992;7.848;2022-12-07T06:01:20;4.40;;;4.00;;
2438;SDS011;14509;47.992;7.848;2022-12-07T06:03:23;6.65;;;4.10;;
2438;SDS011;14509;47.992;7.848;2022-12-07T06:05:25;5.00;;;3.78;;
2438;SDS011;14509;47.992;7.848;2022-12-07T06:07:27;6.22;;;4.70;;
2438;SDS011;14509;47.992;7.848;2022-12-07T06:09:29;9.25;;;6.45;;
2438;SDS011;14509;47.992;7.848;2022-12-07T06:11:31;7.88;;;5.93;;
2438;SDS011;14509;47.992;7.848;2022-12-07T06:13:51;9.13;;;4.60;;
2438;SDS011;14509;47.992;7.848;2022-12-07T06:15:53;10.25;;;5.90;;
2438;SDS011;14509;47.992;7.848;2022-12-07T06:17:56;9.75;;;5.70;;
2438;SDS011;14509;47.992;7.848;2022-12-07T06:19:58;6.82;;;4.85;;
2438;SDS011;14509;47.992;7.848;2022-12-07T06:22:00;7.65;;;4.22;;
2438;SDS011;14509;47.992;7.848;2022-12-07T06:24:03;6.10;;;4.20;;
2438;SDS011;14509;47.992;7.848;2022-12-07T06:26:05;7.47;;;4.85;;
2438;SDS011;14509;47.992;7.848;2022-12-07T06:28:07;6.10;;;4.63;;
2438;SDS011;14509;47.992;7.848;2022-12-07T06:30:09;11.18;;;7.82;;
2438;SDS011;14509;47.992;7.848;2022-12-07T06:32:12;11.95;;;6.88;;
2438;SDS011;14509;47.992;7.848;2022-12-07T06:34:16;7.93;;;6.55;;
2438;SDS011;14509;47.992;7.848;2022-12-07T06:36:19;8.73;;;4.57;;
2438;SDS011;14509;47.992;7.848;2022-12-07T06:38:27;10.00;;;6.78;;
2438;SDS011;14509;47.992;7.848;2022-12-07T06:40:29;7.60;;;4.93;;
2438;SDS011;14509;47.992;7.848;2022-12-07T06:42:31;13.30;;;4.95;;
2438;SDS011;14509;47.992;7.848;2022-12-07T06:44:33;4.80;;;4.15;;
2438;SDS011;14509;47.992;7.848;2022-12-07T06:46:36;5.68;;;5.05;;
2438;SDS011;14509;47.992;7.848;2022-12-07T06:48:38;10.10;;;5.47;;
2438;SDS011;14509;47.992;7.848;2022-12-07T06:50:43;7.07;;;4.10;;
2438;SDS011;14509;47.992;7.848;2022-12-07T06:52:46;8.45;;;5.13;;
2438;SDS011;14509;47.992;7.848;2022-12-07T06:54:48;7.20;;;5.40;;
2438;SDS011;14509;47.992;7.848;2022-12-07T06:56:50;6.88;;;5.05;;
2438;SDS011;14509;47.992;7.848;2022-12-07T06:58:52;6.10;;;5.30;;
2438;SDS011;14509;47.992;7.848;2022-12-07T07:00:54;6.80;;;5.40;;
2438;SDS011;14509;47.992;7.848;2022-12-07T07:02:57;7.57;;;4.65;;
2438;SDS011;14509;47.992;7.848;2022-12-07T07:05:03;8.38;;;6.10;;
2438;SDS011;14509;47.992;7.848;2022-12-07T07:07:07;10.55;;;6.38;;
2438;SDS011;14509;47.992;7.848;2022-12-07T07:09:09;10.68;;;6.28;;
2438;SDS011;14509;47.992;7.848;2022-12-07T07:11:11;10.10;;;4.95;;
2438;SDS011;14509;47.992;7.848;2022-12-07T07:13:13;3.85;;;3.05;;
2438;SDS011;14509;47.992;7.848;2022-12-07T07:15:15;4.63;;;3.97;;
2438;SDS011;14509;47.992;7.848;2022-12-07T07:17:18;8.57;;;6.10;;
2438;SDS011;14509;47.992;7.848;2022-12-07T07:19:20;8.85;;;5.28;;
2438;SDS011;14509;47.992;7.848;2022-12-07T07:21:22;7.78;;;5.45;;
2438;SDS011;14509;47.992;7.848;2022-12-07T07:23:26;8.88;;;6.65;;
2438;SDS011;14509;47.992;7.848;2022-12-07T07:25:28;9.40;;;6.85;;
2438;SDS011;14509;47.992;7.848;2022-12-07T07:27:30;9.57;;;5.53;;
2438;SDS011;14509;47.992;7.848;2022-12-07T07:29:32;11.68;;;6.90;;
2438;SDS011;14509;47.992;7.848;2022-12-07T07:31:34;7.00;;;4.03;;
2438;SDS011;14509;47.992;7.848;2022-12-07T07:33:37;9.50;;;5.88;;
2438;SDS011;14509;47.992;7.848;2022-12-07T07:35:39;10.27;;;5.50;;
2438;SDS011;14509;47.992;7.848;2022-12-07T07:37:41;11.15;;;5.35;;
2438;SDS011;14509;47.992;7.848;2022-12-07T07:39:45;7.75;;;5.65;;
2438;SDS011;14509;47.992;7.848;2022-12-07T07:41:47;5.95;;;5.35;;
2438;SDS011;14509;47.992;7.848;2022-12-07T07:43:58;7.85;;;5.28;;
2438;SDS011;14509;47.992;7.848;2022-12-07T07:46:00;7.95;;;5.20;;
2438;SDS011;14509;47.992;7.848;2022-12-07T07:48:02;8.27;;;5.53;;
2438;SDS011;14509;47.992;7.848;2022-12-07T07:50:05;9.68;;;5.65;;
2438;SDS011;14509;47.992;7.848;2022-12-07T07:52:08;5.93;;;4.70;;
2438;SDS011;14509;47.992;7.848;2022-12-07T07:54:10;10.38;;;6.25;;
2438;SDS011;14509;47.992;7.848;2022-12-07T07:56:14;9.23;;;5.75;;
2438;SDS011;14509;47.992;7.848;2022-12-07T07:58:18;11.32;;;5.55;;
2438;SDS011;14509;47.992;7.848;2022-12-07T08:00:21;9.45;;;5.85;;
2438;SDS011;14509;47.992;7.848;2022-12-07T08:02:23;5.93;;;5.13;;
2438;SDS011;14509;47.992;7.848;2022-12-07T08:04:25;6.00;;;4.88;;
2438;SDS011;14509;47.992;7.848;2022-12-07T08:06:28;7.53;;;5.00;;
2438;SDS011;14509;47.992;7.848;2022-12-07T08:08:30;4.93;;;4.35;;
2438;SDS011;14509;47.992;7.848;2022-12-07T08:10:32;10.52;;;6.90;;
2438;SDS011;14509;47.992;7.848;2022-12-07T08:12:37;8.65;;;5.65;;
2438;SDS011;14509;47.992;7.848;2022-12-07T08:15:00;8.85;;;5.22;;
2438;SDS011;14509;47.992;7.848;2022-12-07T08:17:03;13.25;;;7.72;;
2438;SDS011;14509;47.992;7.848;2022-12-07T08:19:05;9.73;;;6.82;;
2438;SDS011;14509;47.992;7.848;2022-12-07T08:21:09;9.75;;;6.00;;
2438;SDS011;14509;47.992;7.848;2022-12-07T08:23:13;10.20;;;7.90;;
2438;SDS011;14509;47.992;7.848;2022-12-07T08:25:15;10.85;;;8.20;;
2438;SDS011;14509;47.992;7.848;2022-12-07T08:27:18;8.27;;;6.18;;
2438;SDS011;14509;47.992;7.848;2022-12-07T08:29:22;11.98;;;7.30;;
2438;SDS011;14509;47.992;7.848;2022-12-07T08:31:24;8.18;;;5.93;;
2438;SDS011;14509;47.992;7.848;2022-12-07T08:33:27;8.15;;;5.75;;
2438;SDS011;14509;47.992;7.848;2022-12-07T08:35:32;7.88;;;5.90;;
2438;SDS011;14509;47.992;7.848;2022-12-07T08:37:35;5.88;;;4.78;;
2438;SDS011;14509;47.992;7.848;2022-12-07T08:39:37;9.68;;;6.13;;
2438;SDS011;14509;47.992;7.848;2022-12-07T08:41:39;9.40;;;5.25;;
2438;SDS011;14509;47.992;7.848;2022-12-07T08:43:41;6.55;;;4.95;;
2438;SDS011;14509;47.992;7.848;2022-12-07T08:45:45;5.63;;;4.40;;
2438;SDS011;14509;47.992;7.848;2022-12-07T08:47:48;6.70;;;4.82;;
2438;SDS011;14509;47.992;7.848;2022-12-07T08:49:53;4.63;;;3.97;;
2438;SDS011;14509;47.992;7.848;2022-12-07T08:51:55;10.27;;;7.75;;
2438;SDS011;14509;47.992;7.848;2022-12-07T08:53:58;10.55;;;6.93;;
2438;SDS011;14509;47.992;7.848;2022-12-07T08:56:02;6.60;;;5.15;;
2438;SDS011;14509;47.992;7.848;2022-12-07T08:58:06;8.43;;;5.55;;
2438;SDS011;14509;47.992;7.848;2022-12-07T09:00:08;9.50;;;5.53;;
2438;SDS011;14509;47.992;7.848;2022-12-07T09:02:12;5.55;;;4.95;;
2438;SDS011;14509;47.992;7.848;2022-12-07T09:04:14;7.47;;;5.55;;
2438;SDS011;14509;47.992;7.848;2022-12-07T09:06:16;7.00;;;4.90;;
2438;SDS011;14509;47.992;7.848;2022-12-07T09:08:18;8.52;;;6.32;;
2438;SDS011;14509;47.992;7.848;2022-12-07T09:10:21;7.65;;;4.22;;
2438;SDS011;14509;47.992;7.848;2022-12-07T09:12:24;6.15;;;4.38;;
2438;SDS011;14509;47.992;7.848;2022-12-07T09:14:26;5.57;;;4.97;;
2438;SDS011;14509;47.992;7.848;2022-12-07T09:16:27;9.60;;;5.03;;
2438;SDS011;14509;47.992;7.848;2022-12-07T09:18:31;7.28;;;5.32;;
2438;SDS011;14509;47.992;7.848;2022-12-07T09:20:33;8.30;;;4.97;;
2438;SDS011;14509;47.992;7.848;2022-12-07T09:22:35;6.18;;;5.50;;
2438;SDS011;14509;47.992;7.848;2022-12-07T09:24:37;9.85;;;6.57;;
2438;SDS011;14509;47.992;7.848;2022-12-07T09:26:39;5.25;;;4.75;;
2438;SDS011;14509;47.992;7.848;2022-12-07T09:28:41;7.18;;;5.05;;
2438;SDS011;14509;47.992;7.848;2022-12-07T09:30:45;5.82;;;5.22;;
2438;SDS011;14509;47.992;7.848;2022-12-07T09:32:47;7.95;;;5.93;;
2438;SDS011;14509;47.992;7.848;2022-12-07T09:34:51;7.88;;;5.78;;
2438;SDS011;14509;47.992;7.848;2022-12-07T09:36:54;9.05;;;5.03;;
2438;SDS011;14509;47.992;7.848;2022-12-07T14:45:11;7.23;;;2.87;;
2438;SDS011;14509;47.992;7.848;2022-12-07T14:47:16;4.00;;;3.40;;
2438;SDS011;14509;47.992;7.848;2022-12-07T14:49:18;5.53;;;3.27;;
2438;SDS011;14509;47.992;7.848;2022-12-07T14:51:20;5.50;;;3.50;;
2438;SDS011;14509;47.992;7.848;2022-12-07T14:53:24;2.80;;;2.50;;
2438;SDS011;14509;47.992;7.848;2022-12-07T14:55:31;4.77;;;3.00;;
2438;SDS011;14509;47.992;7.848;2022-12-07T14:57:36;3.83;;;2.63;;
2438;SDS011;14509;47.992;7.848;2022-12-07T14:59:39;3.37;;;3.07;;
2438;SDS011;14509;47.992;7.848;2022-12-07T15:01:44;3.40;;;2.90;;
2438;SDS011;14509;47.992;7.848;2022-12-07T15:03:50;2.63;;;2.43;;
2438;SDS011;14509;47.992;7.848;2022-12-07T15:05:52;4.03;;;3.13;;
2438;SDS011;14509;47.992;7.848;2022-12-07T15:07:54;4.90;;;3.23;;
2438;SDS011;14509;47.992;7.848;2022-12-07T15:09:56;4.17;;;2.67;;
2438;SDS011;14509;47.992;7.848;2022-12-07T15:11:58;5.30;;;3.60;;
2438;SDS011;14509;47.992;7.848;2022-12-07T15:14:00;5.05;;;2.70;;
2438;SDS011;14509;47.992;7.848;2022-12-07T15:16:13;4.90;;;2.90;;
2438;SDS011;14509;47.992;7.848;2022-12-07T15:18:19;4.40;;;3.30;;
2438;SDS011;14509;47.992;7.848;2022-12-07T15:20:22;3.67;;;3.27;;
2438;SDS011;14509;47.992;7.848;2022-12-07T15:22:24;4.97;;;3.80;;
2438;SDS011;14509;47.992;7.848;2022-12-07T15:24:26;6.03;;;3.55;;
2438;SDS011;14509;47.992;7.848;2022-12-07T15:26:28;4.72;;;3.40;;
2438;SDS011;14509;47.992;7.848;2022-12-07T15:28:30;4.35;;;3.30;;
2438;SDS011;14509;47.992;7.848;2022-12-07T15:30:32;5.30;;;3.50;;
2438;SDS011;14509;47.992;7.848;2022-12-07T15:32:35;8.30;;;4.40;;
2438;SDS011;14509;47.992;7.848;2022-12-07T15:34:38;7.05;;;3.92;;
2438;SDS011;14509;47.992;7.848;2022-12-07T15:36:40;5.93;;;5.30;;
2438;SDS011;14509;47.992;7.848;2022-12-07T15:38:42;5.88;;;3.90;;
2438;SDS011;14509;47.992;7.848;2022-12-07T15:40:46;7.60;;;4.97;;
2438;SDS011;14509;47.992;7.848;2022-12-07T15:42:48;7.50;;;3.40;;
2438;SDS011;14509;47.992;7.848;2022-12-07T15:44:50;7.03;;;3.83;;
2438;SDS011;14509;47.992;7.848;2022-12-07T15:47:06;8.25;;;4.28;;
2438;SDS011;14509;47.992;7.848;2022-12-07T15:49:09;6.60;;;4.13;;
2438;SDS011;14509;47.992;7.848;2022-12-07T15:51:15;8.23;;;5.30;;
2438;SDS011;14509;47.992;7.848;2022-12-07T15:53:17;8.13;;;4.47;;
2438;SDS011;14509;47.992;7.848;2022-12-07T15:55:19;6.80;;;5.22;;
2438;SDS011;14509;47.992;7.848;2022-12-07T15:57:21;7.15;;;4.90;;
2438;SDS011;14509;47.992;7.848;2022-12-07T15:59:25;7.05;;;4.90;;
2438;SDS011;14509;47.992;7.848;2022-12-07T16:01:28;5.95;;;4.82;;
2438;SDS011;14509;47.992;7.848;2022-12-07T16:03:30;8.27;;;4.90;;
2438;SDS011;14509;47.992;7.848;2022-12-07T16:05:32;6.38;;;4.53;;
2438;SDS011;14509;47.992;7.848;2022-12-07T16:07:36;9.27;;;5.00;;
2438;SDS011;14509;47.992;7.848;2022-12-07T16:09:38;6.85;;;4.47;;
2438;SDS011;14509;47.992;7.848;2022-12-07T16:11:40;8.00;;;4.75;;
2438;SDS011;14509;47.992;7.848;2022-12-07T16:13:42;6.45;;;5.75;;
2438;SDS011;14509;47.992;7.848;2022-12-07T16:15:45;5.90;;;4.05;;
2438;SDS011;14509;47.992;7.848;2022-12-07T16:17:47;6.60;;;4.05;;
2438;SDS011;14509;47.992;7.848;2022-12-07T16:19:49;5.20;;;3.85;;
2438;SDS011;14509;47.992;7.848;2022-12-07T16:21:51;7.93;;;5.57;;
2438;SDS011;14509;47.992;7.848;2022-12-07T16:23:56;5.95;;;5.13;;
2438;SDS011;14509;47.992;7.848;2022-12-07T16:26:06;4.32;;;3.67;;
2438;SDS011;14509;47.992;7.848;2022-12-07T16:28:09;9.25;;;4.88;;
2438;SDS011;14509;47.992;7.848;2022-12-07T16:30:11;6.70;;;4.15;;
2438;SDS011;14509;47.992;7.848;2022-12-07T16:32:16;4.63;;;4.03;;
2438;SDS011;14509;47.992;7.848;2022-12-07T16:34:18;5.10;;;4.63;;
2438;SDS011;14509;47.992;7.848;2022-12-07T16:36:20;9.10;;;6.38;;
2438;SDS011;14509;47.992;7.848;2022-12-07T16:38:24;9.50;;;6.60;;
2438;SDS011;14509;47.992;7.848;2022-12-07T16:40:28;7.43;;;5.63;;
2438;SDS011;14509;47.992;7.848;2022-12-07T16:42:31;8.38;;;4.68;;
2438;SDS011;14509;47.992;7.848;2022-12-07T16:44:34;9.65;;;5.28;;
2438;SDS011;14509;47.992;7.848;2022-12-07T16:46:36;9.15;;;6.53;;
2438;SDS011;14509;47.992;7.848;2022-12-07T16:48:39;9.45;;;7.45;;
2438;SDS011;14509;47.992;7.848;2022-12-07T16:50:44;11.75;;;9.85;;
2438;SDS011;14509;47.992;7.848;2022-12-07T16:52:49;11.93;;;8.18;;
2438;SDS011;14509;47.992;7.848;2022-12-07T16:55:09;8.32;;;5.20;;
2438;SDS011;14509;47.992;7.848;2022-12-07T16:57:13;5.47;;;4.43;;
2438;SDS011;14509;47.992;7.848;2022-12-07T16:59:15;5.63;;;4.80;;
2438;SDS011;14509;47.992;7.848;2022-12-07T17:01:19;7.05;;;5.05;;
2438;SDS011;14509;47.992;7.848;2022-12-07T17:03:22;5.35;;;3.92;;
2438;SDS011;14509;47.992;7.848;2022-12-07T17:05:24;9.55;;;6.10;;
2438;SDS011;14509;47.992;7.848;2022-12-07T17:07:34;13.00;;;9.40;;
2438;SDS011;14509;47.992;7.848;2022-12-07T17:14:21;23.35;;;13.98;;
2438;SDS011;14509;47.992;7.848;2022-12-07T17:16:42;16.88;;;9.80;;
2438;SDS011;14509;47.992;7.848;2022-12-07T17:18:47;8.27;;;6.80;;
2438;SDS011;14509;47.992;7.848;2022-12-07T17:20:52;8.07;;;7.25;;
2438;SDS011;14509;47.992;7.848;2022-12-07T17:22:59;14.90;;;11.40;;
2438;SDS011;14509;47.992;7.848;2022-12-07T17:25:08;16.15;;;12.30;;
2438;SDS011;14509;47.992;7.848;2022-12-07T17:27:11;9.23;;;7.70;;
2438;SDS011;14509;47.992;7.848;2022-12-07T17:29:17;8.60;;;6.75;;
2438;SDS011;14509;47.992;7.848;2022-12-07T17:31:26;8.50;;;6.45;;
2438;SDS011;14509;47.992;7.848;2022-12-07T17:33:28;10.00;;;7.47;;
2438;SDS011;14509;47.992;7.848;2022-12-07T17:35:31;9.50;;;5.95;;
2438;SDS011;14509;47.992;7.848;2022-12-07T17:37:36;8.38;;;6.18;;
2438;SDS011;14509;47.992;7.848;2022-12-07T17:39:39;8.30;;;7.32;;
2438;SDS011;14509;47.992;7.848;2022-12-07T17:41:46;10.90;;;6.93;;
2438;SDS011;14509;47.992;7.848;2022-12-07T17:44:09;11.88;;;6.53;;